CEB3556 RPMZ-RPLL
Flight info
| Callsign | CEB3556 |
|---|---|
| Flight time | 1h 20m |
| Altitude | 36000 |
| Route | BURCO1W BURCO W3 IOO B472 IBAGO IBAGO5R |
| Aircraft | A320/M-SDE3FGHIRWY/LB1 |
Departure
| Time | 2026-04-16 05:11 |
|---|---|
| Airport | Zamboanga International Airport (RPMZ) |
Arrival
| Time | 2026-04-16 06:32 |
|---|---|
| Airport | Ninoy Aquino International Airport (RPLL) |
| Time | Latitude | Longitude | Altitude | Speed | Heading |
|---|---|---|---|---|---|
| 2026-04-16 04:55 | 6.92058 | 122.06081 | 65 ft | 0 kts | 155° |
| 2026-04-16 05:03 | 6.92056 | 122.06083 | 65 ft | 0 kts | 128° |
| 2026-04-16 05:03 | 6.92056 | 122.06087 | 65 ft | 0 kts | 67° |
| 2026-04-16 05:04 | 6.92098 | 122.06071 | 65 ft | 5 kts | 331° |
| 2026-04-16 05:04 | 6.92137 | 122.06049 | 65 ft | 6 kts | 329° |
| 2026-04-16 05:04 | 6.92178 | 122.06019 | 65 ft | 7 kts | 321° |
| 2026-04-16 05:04 | 6.92215 | 122.06004 | 65 ft | 5 kts | 12° |
| 2026-04-16 05:05 | 6.92238 | 122.06027 | 65 ft | 4 kts | 82° |
| 2026-04-16 05:05 | 6.92236 | 122.06064 | 65 ft | 5 kts | 92° |
| 2026-04-16 05:05 | 6.92234 | 122.06107 | 65 ft | 6 kts | 92° |
| 2026-04-16 05:05 | 6.92231 | 122.06158 | 65 ft | 7 kts | 94° |
| 2026-04-16 05:06 | 6.92226 | 122.06216 | 65 ft | 8 kts | 95° |
| 2026-04-16 05:06 | 6.92221 | 122.06281 | 65 ft | 9 kts | 93° |
| 2026-04-16 05:06 | 6.92217 | 122.06353 | 65 ft | 10 kts | 94° |
| 2026-04-16 05:06 | 6.92213 | 122.06431 | 64 ft | 11 kts | 93° |
| 2026-04-16 05:07 | 6.92207 | 122.06512 | 64 ft | 12 kts | 94° |
| 2026-04-16 05:07 | 6.92202 | 122.06601 | 64 ft | 12 kts | 94° |
| 2026-04-16 05:07 | 6.92195 | 122.06691 | 64 ft | 13 kts | 94° |
| 2026-04-16 05:07 | 6.92188 | 122.06786 | 64 ft | 13 kts | 94° |
| 2026-04-16 05:08 | 6.92182 | 122.06885 | 64 ft | 14 kts | 94° |
| 2026-04-16 05:08 | 6.92182 | 122.06937 | 64 ft | 5 kts | 84° |
| 2026-04-16 05:08 | 6.92187 | 122.06980 | 64 ft | 6 kts | 90° |
| 2026-04-16 05:08 | 6.92185 | 122.07027 | 64 ft | 7 kts | 94° |
| 2026-04-16 05:09 | 6.92181 | 122.07082 | 64 ft | 8 kts | 93° |
| 2026-04-16 05:09 | 6.92179 | 122.07120 | 64 ft | 2 kts | 93° |
| 2026-04-16 05:09 | 6.92176 | 122.07125 | 64 ft | 0 kts | 149° |
| 2026-04-16 05:09 | 6.92168 | 122.07117 | 64 ft | 3 kts | 245° |
| 2026-04-16 05:10 | 6.92168 | 122.07091 | 64 ft | 0 kts | 273° |
| 2026-04-16 05:11 | 6.92182 | 122.06883 | 64 ft | 70 kts | 274° |
| 2026-04-16 05:11 | 6.92231 | 122.06121 | 66 ft | 142 kts | 272° |
| 2026-04-16 05:11 | 6.92302 | 122.05029 | 444 ft | 163 kts | 275° |
| 2026-04-16 05:11 | 6.92375 | 122.03892 | 1117 ft | 167 kts | 274° |
| 2026-04-16 05:12 | 6.92452 | 122.02728 | 1822 ft | 166 kts | 275° |
| 2026-04-16 05:12 | 6.92532 | 122.01540 | 2191 ft | 178 kts | 275° |
| 2026-04-16 05:12 | 6.92624 | 122.00227 | 2511 ft | 194 kts | 275° |
| 2026-04-16 05:12 | 6.92722 | 121.98818 | 2818 ft | 212 kts | 274° |
| 2026-04-16 05:13 | 6.92828 | 121.97269 | 3154 ft | 230 kts | 274° |
| 2026-04-16 05:13 | 6.92941 | 121.95578 | 3487 ft | 252 kts | 274° |
| 2026-04-16 05:13 | 6.93148 | 121.93825 | 4182 ft | 255 kts | 289° |
| 2026-04-16 05:13 | 6.94060 | 121.92333 | 4796 ft | 260 kts | 320° |
| 2026-04-16 05:14 | 6.95661 | 121.91431 | 5339 ft | 270 kts | 342° |
| 2026-04-16 05:14 | 6.97471 | 121.90817 | 6023 ft | 277 kts | 342° |
| 2026-04-16 05:14 | 6.99325 | 121.90157 | 6814 ft | 281 kts | 341° |
| 2026-04-16 05:14 | 7.01153 | 121.89484 | 7593 ft | 283 kts | 341° |
| 2026-04-16 05:15 | 7.03006 | 121.88790 | 8328 ft | 286 kts | 341° |
| 2026-04-16 05:15 | 7.05519 | 121.87841 | 9292 ft | 291 kts | 341° |
| 2026-04-16 05:15 | 7.06794 | 121.87372 | 9765 ft | 292 kts | 345° |
| 2026-04-16 05:15 | 7.08790 | 121.87173 | 10419 ft | 291 kts | 11° |
| 2026-04-16 05:16 | 7.10680 | 121.87880 | 11037 ft | 293 kts | 34° |
| 2026-04-16 05:16 | 7.12252 | 121.89256 | 11401 ft | 306 kts | 45° |
| 2026-04-16 05:16 | 7.13809 | 121.90792 | 11687 ft | 323 kts | 45° |
| 2026-04-16 05:16 | 7.15462 | 121.92406 | 11964 ft | 339 kts | 44° |
| 2026-04-16 05:17 | 7.17199 | 121.94083 | 12248 ft | 353 kts | 44° |
| 2026-04-16 05:17 | 7.19010 | 121.95820 | 12723 ft | 360 kts | 44° |
| 2026-04-16 05:17 | 7.20841 | 121.97565 | 13329 ft | 362 kts | 44° |
| 2026-04-16 05:17 | 7.22681 | 121.99318 | 13885 ft | 366 kts | 44° |
| 2026-04-16 05:18 | 7.24519 | 122.01069 | 14411 ft | 369 kts | 44° |
| 2026-04-16 05:18 | 7.26405 | 122.02868 | 14946 ft | 373 kts | 44° |
| 2026-04-16 05:18 | 7.28282 | 122.04658 | 15431 ft | 377 kts | 44° |
| 2026-04-16 05:18 | 7.30211 | 122.06497 | 15936 ft | 380 kts | 44° |
| 2026-04-16 05:19 | 7.32170 | 122.08309 | 16432 ft | 384 kts | 39° |
| 2026-04-16 05:19 | 7.34462 | 122.09720 | 16912 ft | 389 kts | 25° |
| 2026-04-16 05:19 | 7.37055 | 122.10537 | 17392 ft | 394 kts | 11° |
| 2026-04-16 05:19 | 7.40700 | 122.11002 | 18001 ft | 398 kts | 7° |
| 2026-04-16 05:20 | 7.42541 | 122.11198 | 18307 ft | 400 kts | 7° |
| 2026-04-16 05:20 | 7.45347 | 122.11494 | 18762 ft | 403 kts | 7° |
| 2026-04-16 05:20 | 7.48136 | 122.11792 | 19184 ft | 406 kts | 7° |
| 2026-04-16 05:20 | 7.50956 | 122.12096 | 19605 ft | 409 kts | 7° |
| 2026-04-16 05:21 | 7.53815 | 122.12407 | 20038 ft | 412 kts | 7° |
| 2026-04-16 05:21 | 7.57633 | 122.12827 | 20577 ft | 416 kts | 7° |
| 2026-04-16 05:21 | 7.59556 | 122.13040 | 20828 ft | 418 kts | 7° |
| 2026-04-16 05:21 | 7.62480 | 122.13364 | 21203 ft | 421 kts | 7° |
| 2026-04-16 05:22 | 7.65422 | 122.13689 | 21585 ft | 424 kts | 7° |
| 2026-04-16 05:22 | 7.68361 | 122.14016 | 21955 ft | 427 kts | 7° |
| 2026-04-16 05:22 | 7.71316 | 122.14344 | 22309 ft | 430 kts | 7° |
| 2026-04-16 05:22 | 7.74288 | 122.14674 | 22668 ft | 432 kts | 6° |
| 2026-04-16 05:23 | 7.77327 | 122.15012 | 23031 ft | 435 kts | 6° |
| 2026-04-16 05:23 | 7.80339 | 122.15346 | 23386 ft | 437 kts | 6° |
| 2026-04-16 05:23 | 7.83376 | 122.15685 | 23738 ft | 440 kts | 6° |
| 2026-04-16 05:23 | 7.86412 | 122.16022 | 24077 ft | 442 kts | 6° |
| 2026-04-16 05:24 | 7.89518 | 122.16368 | 24409 ft | 445 kts | 6° |
| 2026-04-16 05:24 | 7.92594 | 122.16710 | 24731 ft | 447 kts | 6° |
| 2026-04-16 05:24 | 7.95728 | 122.17058 | 25053 ft | 449 kts | 6° |
| 2026-04-16 05:24 | 7.98844 | 122.17403 | 25374 ft | 451 kts | 6° |
| 2026-04-16 05:25 | 8.01969 | 122.17751 | 25676 ft | 453 kts | 6° |
| 2026-04-16 05:25 | 8.05117 | 122.18102 | 25964 ft | 456 kts | 5° |
| 2026-04-16 05:25 | 8.08312 | 122.18456 | 26259 ft | 457 kts | 6° |
| 2026-04-16 05:25 | 8.11497 | 122.18810 | 26553 ft | 459 kts | 5° |
| 2026-04-16 05:26 | 8.14676 | 122.19164 | 26825 ft | 461 kts | 5° |
| 2026-04-16 05:26 | 8.17901 | 122.19521 | 27090 ft | 463 kts | 5° |
| 2026-04-16 05:26 | 8.21098 | 122.19875 | 27353 ft | 464 kts | 5° |
| 2026-04-16 05:26 | 8.24354 | 122.20237 | 27614 ft | 466 kts | 5° |
| 2026-04-16 05:27 | 8.27604 | 122.20599 | 27860 ft | 468 kts | 5° |
| 2026-04-16 05:27 | 8.30817 | 122.20956 | 28096 ft | 469 kts | 5° |
| 2026-04-16 05:27 | 8.34100 | 122.21323 | 28325 ft | 471 kts | 5° |
| 2026-04-16 05:27 | 8.38464 | 122.21809 | 28630 ft | 473 kts | 5° |
| 2026-04-16 05:28 | 8.40636 | 122.22050 | 28786 ft | 474 kts | 5° |
| 2026-04-16 05:28 | 8.43936 | 122.22417 | 29022 ft | 475 kts | 5° |
| 2026-04-16 05:28 | 8.47221 | 122.22782 | 29331 ft | 474 kts | 5° |
| 2026-04-16 05:28 | 8.50502 | 122.23148 | 29684 ft | 472 kts | 5° |
| 2026-04-16 05:29 | 8.53782 | 122.23515 | 30040 ft | 470 kts | 5° |
| 2026-04-16 05:29 | 8.57051 | 122.23879 | 30382 ft | 469 kts | 5° |
| 2026-04-16 05:29 | 8.60259 | 122.24236 | 30707 ft | 468 kts | 5° |
| 2026-04-16 05:29 | 8.63524 | 122.24600 | 31041 ft | 467 kts | 5° |
| 2026-04-16 05:30 | 8.66758 | 122.24963 | 31374 ft | 465 kts | 5° |
| 2026-04-16 05:30 | 8.69984 | 122.25322 | 31702 ft | 464 kts | 6° |
| 2026-04-16 05:30 | 8.73183 | 122.25680 | 32022 ft | 463 kts | 6° |
| 2026-04-16 05:30 | 8.76399 | 122.26038 | 32336 ft | 462 kts | 6° |
| 2026-04-16 05:31 | 8.79594 | 122.26395 | 32634 ft | 461 kts | 6° |
| 2026-04-16 05:31 | 8.82798 | 122.26753 | 32951 ft | 460 kts | 6° |
| 2026-04-16 05:31 | 8.85958 | 122.27106 | 33255 ft | 459 kts | 6° |
| 2026-04-16 05:31 | 8.90201 | 122.27580 | 33657 ft | 458 kts | 6° |
| 2026-04-16 05:32 | 8.92315 | 122.27817 | 33866 ft | 458 kts | 6° |
| 2026-04-16 05:32 | 8.95501 | 122.28173 | 34167 ft | 457 kts | 6° |
| 2026-04-16 05:32 | 8.98676 | 122.28528 | 34415 ft | 457 kts | 6° |
| 2026-04-16 05:32 | 9.01839 | 122.28882 | 34611 ft | 457 kts | 6° |
| 2026-04-16 05:33 | 9.05036 | 122.29240 | 34799 ft | 458 kts | 6° |
| 2026-04-16 05:33 | 9.08208 | 122.29594 | 34983 ft | 459 kts | 6° |
| 2026-04-16 05:33 | 9.11371 | 122.29948 | 35145 ft | 459 kts | 6° |
| 2026-04-16 05:33 | 9.14584 | 122.30306 | 35306 ft | 460 kts | 6° |
| 2026-04-16 05:34 | 9.18875 | 122.30785 | 35491 ft | 461 kts | 6° |
| 2026-04-16 05:34 | 9.24181 | 122.31377 | 35727 ft | 462 kts | 6° |
| 2026-04-16 05:34 | 9.27427 | 122.31741 | 35855 ft | 463 kts | 6° |
| 2026-04-16 05:35 | 9.30621 | 122.32098 | 35919 ft | 464 kts | 6° |
| 2026-04-16 05:35 | 9.37058 | 122.32819 | 35931 ft | 465 kts | 6° |
| 2026-04-16 05:36 | 9.43489 | 122.33540 | 35934 ft | 465 kts | 6° |
| 2026-04-16 05:36 | 9.49948 | 122.34264 | 35935 ft | 465 kts | 6° |
| 2026-04-16 05:37 | 9.56407 | 122.34987 | 35936 ft | 465 kts | 6° |
| 2026-04-16 05:37 | 9.62826 | 122.35706 | 35937 ft | 465 kts | 6° |
| 2026-04-16 05:38 | 9.69324 | 122.36435 | 35938 ft | 466 kts | 6° |
| 2026-04-16 05:38 | 9.75749 | 122.37156 | 35941 ft | 466 kts | 6° |
| 2026-04-16 05:39 | 9.82207 | 122.37878 | 35942 ft | 466 kts | 6° |
| 2026-04-16 05:39 | 9.88678 | 122.38602 | 35940 ft | 466 kts | 6° |
| 2026-04-16 05:40 | 9.95155 | 122.39326 | 35941 ft | 466 kts | 6° |
| 2026-04-16 05:40 | 10.01654 | 122.40055 | 35940 ft | 467 kts | 6° |
| 2026-04-16 05:41 | 10.08130 | 122.40782 | 35940 ft | 467 kts | 6° |
| 2026-04-16 05:41 | 10.14642 | 122.41511 | 35940 ft | 467 kts | 6° |
| 2026-04-16 05:42 | 10.21104 | 122.42233 | 35939 ft | 468 kts | 6° |
| 2026-04-16 05:42 | 10.27583 | 122.42959 | 35940 ft | 469 kts | 6° |
| 2026-04-16 05:43 | 10.34105 | 122.43691 | 35941 ft | 469 kts | 6° |
| 2026-04-16 05:43 | 10.40596 | 122.44420 | 35940 ft | 469 kts | 6° |
| 2026-04-16 05:44 | 10.47144 | 122.45156 | 35939 ft | 470 kts | 6° |
| 2026-04-16 05:44 | 10.53654 | 122.45888 | 35898 ft | 471 kts | 6° |
| 2026-04-16 05:45 | 10.60186 | 122.46622 | 35888 ft | 471 kts | 6° |
| 2026-04-16 05:45 | 10.66715 | 122.47356 | 35888 ft | 472 kts | 6° |
| 2026-04-16 05:46 | 10.73289 | 122.48090 | 35888 ft | 472 kts | 5° |
| 2026-04-16 05:46 | 10.79853 | 122.48231 | 35888 ft | 472 kts | 356° |
| 2026-04-16 05:47 | 10.86369 | 122.47311 | 35893 ft | 472 kts | 346° |
| 2026-04-16 05:47 | 10.92633 | 122.45361 | 35902 ft | 471 kts | 337° |
| 2026-04-16 05:48 | 10.98715 | 122.42749 | 35918 ft | 471 kts | 336° |
| 2026-04-16 05:48 | 11.04750 | 122.40110 | 35933 ft | 472 kts | 336° |
| 2026-04-16 05:49 | 11.10779 | 122.37492 | 35941 ft | 472 kts | 336° |
| 2026-04-16 05:49 | 11.16859 | 122.34873 | 35948 ft | 472 kts | 336° |
| 2026-04-16 05:50 | 11.22901 | 122.32273 | 35952 ft | 472 kts | 336° |
| 2026-04-16 05:50 | 11.28951 | 122.29661 | 35956 ft | 472 kts | 336° |
| 2026-04-16 05:51 | 11.35007 | 122.27038 | 35959 ft | 471 kts | 336° |
| 2026-04-16 05:51 | 11.41049 | 122.24419 | 35959 ft | 471 kts | 336° |
| 2026-04-16 05:52 | 11.47075 | 122.21806 | 35952 ft | 470 kts | 336° |
| 2026-04-16 05:52 | 11.53072 | 122.19203 | 35944 ft | 469 kts | 336° |
| 2026-04-16 05:53 | 11.59098 | 122.16585 | 35935 ft | 468 kts | 336° |
| 2026-04-16 05:53 | 11.65085 | 122.13985 | 35927 ft | 468 kts | 336° |
| 2026-04-16 05:54 | 11.71086 | 122.11376 | 35919 ft | 467 kts | 336° |
| 2026-04-16 05:54 | 11.77081 | 122.08769 | 35912 ft | 467 kts | 336° |
| 2026-04-16 05:55 | 11.83074 | 122.06163 | 35907 ft | 467 kts | 336° |
| 2026-04-16 05:55 | 11.89051 | 122.03561 | 35905 ft | 467 kts | 336° |
| 2026-04-16 05:56 | 11.95067 | 122.00940 | 35906 ft | 467 kts | 336° |
| 2026-04-16 05:56 | 12.01005 | 121.98354 | 35905 ft | 466 kts | 336° |
| 2026-04-16 05:57 | 12.07020 | 121.95731 | 35904 ft | 467 kts | 336° |
| 2026-04-16 05:57 | 12.12991 | 121.93130 | 35905 ft | 467 kts | 336° |
| 2026-04-16 05:58 | 12.18955 | 121.90538 | 35906 ft | 467 kts | 336° |
| 2026-04-16 05:58 | 12.24942 | 121.87923 | 35906 ft | 467 kts | 336° |
| 2026-04-16 05:59 | 12.30939 | 121.85297 | 35906 ft | 467 kts | 336° |
| 2026-04-16 05:59 | 12.36905 | 121.82687 | 35906 ft | 467 kts | 336° |
| 2026-04-16 06:00 | 12.42928 | 121.80069 | 35906 ft | 467 kts | 336° |
| 2026-04-16 06:00 | 12.48947 | 121.77445 | 35906 ft | 467 kts | 336° |
| 2026-04-16 06:01 | 12.54927 | 121.74831 | 35902 ft | 466 kts | 336° |
| 2026-04-16 06:01 | 12.57902 | 121.73528 | 35708 ft | 462 kts | 336° |
| 2026-04-16 06:01 | 12.60875 | 121.72224 | 35066 ft | 461 kts | 336° |
| 2026-04-16 06:01 | 12.63836 | 121.70925 | 34044 ft | 467 kts | 336° |
| 2026-04-16 06:02 | 12.69910 | 121.68258 | 31685 ft | 483 kts | 336° |
| 2026-04-16 06:02 | 12.72990 | 121.66907 | 30641 ft | 488 kts | 336° |
| 2026-04-16 06:02 | 12.76108 | 121.65538 | 29689 ft | 489 kts | 337° |
| 2026-04-16 06:03 | 12.79246 | 121.64160 | 28760 ft | 488 kts | 337° |
| 2026-04-16 06:03 | 12.82364 | 121.62791 | 27939 ft | 486 kts | 337° |
| 2026-04-16 06:03 | 12.85453 | 121.61435 | 27198 ft | 482 kts | 337° |
| 2026-04-16 06:03 | 12.88554 | 121.60073 | 26493 ft | 477 kts | 337° |
| 2026-04-16 06:04 | 12.91560 | 121.58751 | 25816 ft | 473 kts | 337° |
| 2026-04-16 06:04 | 12.94570 | 121.57428 | 25179 ft | 468 kts | 337° |
| 2026-04-16 06:04 | 12.97542 | 121.56119 | 24612 ft | 461 kts | 337° |
| 2026-04-16 06:04 | 13.00471 | 121.54831 | 24071 ft | 455 kts | 337° |
| 2026-04-16 06:05 | 13.03381 | 121.53551 | 23540 ft | 449 kts | 337° |
| 2026-04-16 06:05 | 13.06253 | 121.52285 | 23015 ft | 444 kts | 337° |
| 2026-04-16 06:05 | 13.09097 | 121.51031 | 22499 ft | 438 kts | 338° |
| 2026-04-16 06:05 | 13.11898 | 121.49799 | 21988 ft | 434 kts | 338° |
| 2026-04-16 06:06 | 13.14630 | 121.48601 | 21488 ft | 429 kts | 338° |
| 2026-04-16 06:06 | 13.17378 | 121.47393 | 20987 ft | 424 kts | 338° |
| 2026-04-16 06:06 | 13.20083 | 121.46204 | 20483 ft | 420 kts | 338° |
| 2026-04-16 06:06 | 13.22750 | 121.45027 | 19971 ft | 416 kts | 338° |
| 2026-04-16 06:07 | 13.25410 | 121.43853 | 19494 ft | 412 kts | 338° |
| 2026-04-16 06:07 | 13.28023 | 121.42700 | 18982 ft | 408 kts | 338° |
| 2026-04-16 06:07 | 13.30620 | 121.41554 | 18471 ft | 404 kts | 338° |
| 2026-04-16 06:07 | 13.33214 | 121.40408 | 17985 ft | 400 kts | 338° |
| 2026-04-16 06:08 | 13.35750 | 121.39285 | 17507 ft | 396 kts | 339° |
| 2026-04-16 06:08 | 13.38283 | 121.38165 | 17007 ft | 392 kts | 339° |
| 2026-04-16 06:08 | 13.40758 | 121.37070 | 16525 ft | 389 kts | 339° |
| 2026-04-16 06:08 | 13.43236 | 121.35972 | 16302 ft | 376 kts | 339° |
| 2026-04-16 06:09 | 13.45580 | 121.34930 | 16164 ft | 361 kts | 338° |
| 2026-04-16 06:09 | 13.47859 | 121.33911 | 16054 ft | 347 kts | 338° |
| 2026-04-16 06:09 | 13.50017 | 121.32943 | 15977 ft | 333 kts | 339° |
| 2026-04-16 06:09 | 13.52119 | 121.32005 | 15909 ft | 320 kts | 338° |
| 2026-04-16 06:10 | 13.54061 | 121.30917 | 15899 ft | 319 kts | 327° |
| 2026-04-16 06:10 | 13.55768 | 121.29437 | 15884 ft | 323 kts | 316° |
| 2026-04-16 06:10 | 13.57291 | 121.27718 | 15896 ft | 324 kts | 314° |
| 2026-04-16 06:10 | 13.59264 | 121.25387 | 15901 ft | 325 kts | 313° |
| 2026-04-16 06:11 | 13.60247 | 121.24223 | 15910 ft | 325 kts | 313° |
| 2026-04-16 06:11 | 13.61731 | 121.22472 | 15908 ft | 325 kts | 313° |
| 2026-04-16 06:11 | 13.63229 | 121.20711 | 15830 ft | 321 kts | 313° |
| 2026-04-16 06:11 | 13.64697 | 121.18989 | 15483 ft | 319 kts | 314° |
| 2026-04-16 06:12 | 13.66145 | 121.17293 | 15035 ft | 320 kts | 314° |
| 2026-04-16 06:12 | 13.67625 | 121.15562 | 14629 ft | 318 kts | 314° |
| 2026-04-16 06:12 | 13.69078 | 121.13862 | 14253 ft | 316 kts | 313° |
| 2026-04-16 06:12 | 13.70535 | 121.12156 | 13944 ft | 315 kts | 313° |
| 2026-04-16 06:13 | 13.71985 | 121.10456 | 13633 ft | 315 kts | 314° |
| 2026-04-16 06:13 | 13.73416 | 121.08781 | 13300 ft | 314 kts | 313° |
| 2026-04-16 06:13 | 13.74859 | 121.07091 | 12982 ft | 313 kts | 313° |
| 2026-04-16 06:13 | 13.76306 | 121.05396 | 12708 ft | 311 kts | 313° |
| 2026-04-16 06:14 | 13.77725 | 121.03734 | 12406 ft | 310 kts | 313° |
| 2026-04-16 06:14 | 13.79149 | 121.02065 | 12082 ft | 309 kts | 313° |
| 2026-04-16 06:14 | 13.80558 | 121.00415 | 11763 ft | 307 kts | 314° |
| 2026-04-16 06:14 | 13.82135 | 120.98963 | 11465 ft | 302 kts | 331° |
| 2026-04-16 06:15 | 13.84064 | 120.98156 | 11155 ft | 296 kts | 351° |
| 2026-04-16 06:15 | 13.86016 | 120.97890 | 10866 ft | 294 kts | 356° |
| 2026-04-16 06:15 | 13.88063 | 120.97700 | 10570 ft | 293 kts | 357° |
| 2026-04-16 06:15 | 13.90096 | 120.97510 | 10274 ft | 293 kts | 356° |
| 2026-04-16 06:16 | 13.92128 | 120.97310 | 9956 ft | 292 kts | 356° |
| 2026-04-16 06:16 | 13.94163 | 120.97101 | 9660 ft | 291 kts | 356° |
| 2026-04-16 06:16 | 13.96183 | 120.96889 | 9379 ft | 290 kts | 356° |
| 2026-04-16 06:16 | 13.98208 | 120.96676 | 9056 ft | 289 kts | 356° |
| 2026-04-16 06:17 | 14.00206 | 120.96465 | 8757 ft | 287 kts | 356° |
| 2026-04-16 06:17 | 14.02222 | 120.96253 | 8445 ft | 286 kts | 356° |
| 2026-04-16 06:17 | 14.04202 | 120.96044 | 8162 ft | 285 kts | 355° |
| 2026-04-16 06:17 | 14.06170 | 120.95834 | 7843 ft | 283 kts | 356° |
| 2026-04-16 06:18 | 14.08157 | 120.95624 | 7533 ft | 282 kts | 355° |
| 2026-04-16 06:18 | 14.10106 | 120.95418 | 7232 ft | 281 kts | 355° |
| 2026-04-16 06:18 | 14.12076 | 120.95210 | 6921 ft | 278 kts | 355° |
| 2026-04-16 06:18 | 14.14002 | 120.95007 | 6626 ft | 274 kts | 355° |
| 2026-04-16 06:19 | 14.15912 | 120.94782 | 6315 ft | 272 kts | 351° |
| 2026-04-16 06:19 | 14.17746 | 120.94267 | 6013 ft | 273 kts | 340° |
| 2026-04-16 06:19 | 14.19486 | 120.93404 | 5791 ft | 277 kts | 332° |
| 2026-04-16 06:19 | 14.21170 | 120.92411 | 5566 ft | 278 kts | 331° |
| 2026-04-16 06:20 | 14.22836 | 120.91406 | 5362 ft | 277 kts | 331° |
| 2026-04-16 06:20 | 14.24528 | 120.90380 | 5142 ft | 277 kts | 328° |
| 2026-04-16 06:20 | 14.25867 | 120.88982 | 4996 ft | 272 kts | 297° |
| 2026-04-16 06:20 | 14.26314 | 120.87167 | 4993 ft | 258 kts | 269° |
| 2026-04-16 06:21 | 14.25915 | 120.85382 | 4990 ft | 256 kts | 243° |
| 2026-04-16 06:21 | 14.25010 | 120.83768 | 4995 ft | 256 kts | 238° |
| 2026-04-16 06:21 | 14.24106 | 120.82239 | 4984 ft | 241 kts | 238° |
| 2026-04-16 06:21 | 14.23247 | 120.80761 | 5004 ft | 237 kts | 239° |
| 2026-04-16 06:22 | 14.22414 | 120.79297 | 4984 ft | 237 kts | 239° |
| 2026-04-16 06:22 | 14.21578 | 120.77809 | 4983 ft | 237 kts | 240° |
| 2026-04-16 06:22 | 14.20966 | 120.76230 | 4952 ft | 236 kts | 268° |
| 2026-04-16 06:22 | 14.21293 | 120.74606 | 4959 ft | 233 kts | 300° |
| 2026-04-16 06:23 | 14.22384 | 120.73412 | 4974 ft | 230 kts | 334° |
| 2026-04-16 06:23 | 14.23890 | 120.72776 | 4984 ft | 231 kts | 341° |
| 2026-04-16 06:23 | 14.25421 | 120.72190 | 4981 ft | 232 kts | 341° |
| 2026-04-16 06:23 | 14.26922 | 120.71604 | 4979 ft | 232 kts | 340° |
| 2026-04-16 06:24 | 14.28459 | 120.70997 | 4982 ft | 233 kts | 340° |
| 2026-04-16 06:24 | 14.29989 | 120.70390 | 4982 ft | 233 kts | 340° |
| 2026-04-16 06:24 | 14.31515 | 120.69846 | 4971 ft | 231 kts | 352° |
| 2026-04-16 06:24 | 14.33060 | 120.70045 | 4945 ft | 224 kts | 32° |
| 2026-04-16 06:25 | 14.34162 | 120.71136 | 4966 ft | 222 kts | 59° |
| 2026-04-16 06:25 | 14.34884 | 120.72573 | 4985 ft | 225 kts | 65° |
| 2026-04-16 06:25 | 14.35558 | 120.74043 | 4977 ft | 226 kts | 64° |
| 2026-04-16 06:25 | 14.36253 | 120.75478 | 4926 ft | 218 kts | 63° |
| 2026-04-16 06:26 | 14.36960 | 120.76860 | 4731 ft | 213 kts | 62° |
| 2026-04-16 06:26 | 14.37672 | 120.78197 | 4477 ft | 211 kts | 62° |
| 2026-04-16 06:26 | 14.38400 | 120.79532 | 4212 ft | 210 kts | 61° |
| 2026-04-16 06:26 | 14.39123 | 120.80840 | 3953 ft | 209 kts | 61° |
| 2026-04-16 06:27 | 14.39837 | 120.82124 | 3783 ft | 199 kts | 61° |
| 2026-04-16 06:27 | 14.40524 | 120.83356 | 3507 ft | 196 kts | 60° |
| 2026-04-16 06:27 | 14.41196 | 120.84560 | 3244 ft | 193 kts | 60° |
| 2026-04-16 06:27 | 14.41863 | 120.85758 | 2986 ft | 189 kts | 60° |
| 2026-04-16 06:28 | 14.42515 | 120.86929 | 2739 ft | 184 kts | 61° |
| 2026-04-16 06:28 | 14.43144 | 120.88056 | 2501 ft | 179 kts | 61° |
| 2026-04-16 06:28 | 14.43753 | 120.89150 | 2279 ft | 173 kts | 62° |
| 2026-04-16 06:28 | 14.44344 | 120.90212 | 2060 ft | 163 kts | 61° |
| 2026-04-16 06:29 | 14.44907 | 120.91225 | 1881 ft | 163 kts | 62° |
| 2026-04-16 06:29 | 14.45472 | 120.92245 | 1689 ft | 163 kts | 62° |
| 2026-04-16 06:29 | 14.46039 | 120.93265 | 1500 ft | 161 kts | 62° |
| 2026-04-16 06:29 | 14.46607 | 120.94286 | 1316 ft | 158 kts | 62° |
| 2026-04-16 06:30 | 14.47134 | 120.95235 | 1083 ft | 147 kts | 62° |
| 2026-04-16 06:30 | 14.47641 | 120.96147 | 900 ft | 144 kts | 62° |
| 2026-04-16 06:30 | 14.48146 | 120.97053 | 735 ft | 145 kts | 61° |
| 2026-04-16 06:30 | 14.48650 | 120.97949 | 546 ft | 141 kts | 63° |
| 2026-04-16 06:31 | 14.49120 | 120.98821 | 361 ft | 138 kts | 62° |
| 2026-04-16 06:31 | 14.49604 | 120.99692 | 193 ft | 143 kts | 60° |
| 2026-04-16 06:31 | 14.50106 | 121.00587 | 88 ft | 137 kts | 62° |
| 2026-04-16 06:31 | 14.50537 | 121.01368 | 82 ft | 107 kts | 61° |
| 2026-04-16 06:32 | 14.50797 | 121.01837 | 82 ft | 59 kts | 61° |
| 2026-04-16 06:32 | 14.50981 | 121.02153 | 82 ft | 31 kts | 48° |
| 2026-04-16 06:32 | 14.51090 | 121.02258 | 82 ft | 14 kts | 42° |
| 2026-04-16 06:32 | 14.51144 | 121.02303 | 82 ft | 7 kts | 18° |
| 2026-04-16 06:33 | 14.51189 | 121.02286 | 82 ft | 8 kts | 296° |
| 2026-04-16 06:33 | 14.51174 | 121.02228 | 82 ft | 9 kts | 239° |
| 2026-04-16 06:33 | 14.51143 | 121.02174 | 82 ft | 4 kts | 239° |
| 2026-04-16 06:33 | 14.51132 | 121.02154 | 82 ft | 3 kts | 239° |
| 2026-04-16 06:34 | 14.51116 | 121.02126 | 82 ft | 4 kts | 242° |
| 2026-04-16 06:34 | 14.51098 | 121.02091 | 82 ft | 6 kts | 242° |
| 2026-04-16 06:34 | 14.51073 | 121.02045 | 82 ft | 8 kts | 240° |
| 2026-04-16 06:34 | 14.51063 | 121.02000 | 82 ft | 6 kts | 298° |
| 2026-04-16 06:35 | 14.51092 | 121.01968 | 82 ft | 6 kts | 313° |
| 2026-04-16 06:35 | 14.51133 | 121.01923 | 82 ft | 10 kts | 314° |
| 2026-04-16 06:35 | 14.51188 | 121.01865 | 82 ft | 12 kts | 315° |
| 2026-04-16 06:35 | 14.51251 | 121.01801 | 82 ft | 12 kts | 315° |
| 2026-04-16 06:36 | 14.51317 | 121.01733 | 82 ft | 13 kts | 314° |
| 2026-04-16 06:36 | 14.51384 | 121.01662 | 82 ft | 14 kts | 315° |
| 2026-04-16 06:36 | 14.51437 | 121.01616 | 82 ft | 5 kts | 345° |
| 2026-04-16 06:36 | 14.51480 | 121.01630 | 82 ft | 7 kts | 37° |
| 2026-04-16 06:37 | 14.51519 | 121.01669 | 82 ft | 8 kts | 45° |
| 2026-04-16 06:37 | 14.51565 | 121.01716 | 82 ft | 9 kts | 44° |
| 2026-04-16 06:37 | 14.51616 | 121.01767 | 82 ft | 10 kts | 44° |
| 2026-04-16 06:37 | 14.51685 | 121.01782 | 82 ft | 7 kts | 338° |
| 2026-04-16 06:38 | 14.51722 | 121.01749 | 82 ft | 7 kts | 315° |
| 2026-04-16 06:38 | 14.51749 | 121.01717 | 82 ft | 2 kts | 284° |
| 2026-04-16 06:38 | 14.51738 | 121.01696 | 82 ft | 4 kts | 228° |
| 2026-04-16 06:38 | 14.51721 | 121.01678 | 82 ft | 3 kts | 225° |
| 2026-04-16 06:39 | 14.51710 | 121.01667 | 82 ft | 1 kts | 226° |
| 2026-04-16 06:39 | 14.51700 | 121.01656 | 82 ft | 0 kts | 226° |